Time;durP1;ratioP1;P1;durP2;ratioP2;P2;SDS_P1;SDS_P2;PMS_P1;PMS_P2;Temp;Humidity;BMP_temperature;BMP_pressure;BME280_temperature;BME280_humidity;BME280_pressure;Samples;Min_cycle;Max_cycle;Signal;HPM_P1;HPM_P2
2023/04/22 00:01:23;;;;;;;7.82;5.82;;;8.70;99.90;;;;;;5063896;28;20477;-62
2023/04/22 00:03:50;;;;;;;;;;;8.80;99.90;;;;;;5059395;28;20437;-62
2023/04/22 00:06:16;;;;;;;;;;;8.80;99.90;;;;;;5062499;28;19924;-61
2023/04/22 00:08:44;;;;;;;;;;;8.90;99.90;;;;;;5064331;28;20391;-62
2023/04/22 00:11:11;;;;;;;;;;;8.90;99.90;;;;;;5063665;28;20102;-63
2023/04/22 00:13:37;;;;;;;;;;;8.90;99.90;;;;;;5055582;28;19941;-62
2023/04/22 00:16:04;;;;;;;;;;;8.90;99.90;;;;;;5062771;28;19921;-63
2023/04/22 00:18:31;;;;;;;;;;;8.90;99.90;;;;;;5055698;28;19920;-63
2023/04/22 00:20:57;;;;;;;;;;;8.90;99.90;;;;;;5082738;28;20400;-63
2023/04/22 00:23:24;;;;;;;;;;;8.90;99.90;;;;;;5067402;28;19967;-63
2023/04/22 00:25:51;;;;;;;;;;;8.90;99.90;;;;;;5060896;28;19921;-63
2023/04/22 00:28:18;;;;;;;;;;;8.90;99.90;;;;;;5059923;28;20334;-61
2023/04/22 00:30:45;;;;;;;;;;;8.80;99.90;;;;;;5055181;28;19921;-62
2023/04/22 00:33:11;;;;;;;;;;;8.80;99.90;;;;;;5054897;28;19921;-60
2023/04/22 00:35:38;;;;;;;;;;;8.80;99.90;;;;;;5070892;28;19924;-63
2023/04/22 00:38:04;;;;;;;;;;;8.80;99.90;;;;;;5067417;28;19928;-63
2023/04/22 00:40:30;;;;;;;;;;;8.80;99.90;;;;;;5056083;28;19921;-61
2023/04/22 00:42:59;;;;;;;;;;;8.90;99.90;;;;;;5056427;28;20276;-63
2023/04/22 00:45:26;;;;;;;;;;;8.90;99.90;;;;;;5074827;28;20322;-63
2023/04/22 00:47:52;;;;;;;;;;;8.90;99.90;;;;;;5074986;28;19970;-62
2023/04/22 00:50:19;;;;;;;;;;;8.90;99.90;;;;;;5061001;28;19921;-62
2023/04/22 00:52:45;;;;;;;;;;;8.90;99.90;;;;;;5065690;28;19967;-62
2023/04/22 00:55:12;;;;;;;;;;;8.90;99.90;;;;;;5062993;28;19947;-63
2023/04/22 00:57:39;;;;;;;;;;;8.90;99.90;;;;;;5069174;28;19920;-62
2023/04/22 01:00:09;;;;;;;;;;;8.90;99.90;;;;;;5062744;28;20337;-62
2023/04/22 01:02:35;;;;;;;;;;;8.90;99.90;;;;;;5060394;28;20003;-62
2023/04/22 01:05:02;;;;;;;;;;;8.90;99.90;;;;;;5066093;28;19970;-62
2023/04/22 01:07:29;;;;;;;;;;;8.80;99.90;;;;;;5057248;28;19963;-63
2023/04/22 01:09:56;;;;;;;;;;;8.90;99.90;;;;;;5054158;28;19920;-62
2023/04/22 01:12:22;;;;;;;;;;;8.90;99.90;;;;;;5062093;28;19921;-63
2023/04/22 01:14:49;;;;;;;;;;;8.90;99.90;;;;;;5061659;28;19920;-63
2023/04/22 01:17:18;;;;;;;;;;;9.00;99.90;;;;;;5054298;28;19924;-62
2023/04/22 01:19:44;;;;;;;;;;;9.00;99.90;;;;;;5073507;28;19920;-62
2023/04/22 01:22:12;;;;;;;;;;;9.00;99.90;;;;;;5078656;28;19921;-62
2023/04/22 01:24:40;;;;;;;;;;;9.00;99.90;;;;;;5060645;28;19924;-62
2023/04/22 01:27:07;;;;;;;;;;;9.00;99.90;;;;;;5066911;28;19932;-62
2023/04/22 01:29:33;;;;;;;;;;;9.00;99.90;;;;;;5064899;28;19970;-63
2023/04/22 01:32:00;;;;;;;;;;;9.00;99.90;;;;;;5063483;28;19920;-62
2023/04/22 01:34:26;;;;;;;;;;;8.90;99.90;;;;;;5062639;28;19921;-62
2023/04/22 01:36:53;;;;;;;;;;;8.90;99.90;;;;;;5064289;28;20370;-63
2023/04/22 01:39:19;;;;;;;;;;;9.00;99.90;;;;;;5061058;28;19921;-63
2023/04/22 01:41:47;;;;;;;;;;;9.00;99.90;;;;;;5061504;28;19920;-62
2023/04/22 01:44:14;;;;;;;;;;;9.00;99.90;;;;;;5062020;28;19921;-63
2023/04/22 01:46:41;;;;;;;;;;;9.10;99.90;;;;;;5061856;28;19927;-63
2023/04/22 01:49:07;;;;;;;;;;;9.10;99.90;;;;;;5067122;28;20595;-60
2023/04/22 01:51:33;;;;;;;;;;;9.10;99.90;;;;;;5073132;28;19920;-62
2023/04/22 01:54:02;;;;;;;;;;;9.20;99.90;;;;;;5061880;28;19982;-62
2023/04/22 01:56:29;;;;;;;;;;;9.20;99.90;;;;;;5062942;28;19920;-62
2023/04/22 01:58:57;;;;;;;;;;;9.20;99.90;;;;;;5064114;28;20399;-62
2023/04/22 02:01:23;;;;;;;;;;;9.30;99.90;;;;;;5062176;28;19925;-62
2023/04/22 02:03:50;;;;;;;;;;;9.30;99.90;;;;;;5062200;28;19979;-63
2023/04/22 02:06:16;;;;;;;;;;;9.40;99.90;;;;;;5065091;28;20418;-62
2023/04/22 02:08:43;;;;;;;;;;;9.40;99.90;;;;;;5062880;28;19974;-62
2023/04/22 02:11:09;;;;;;;;;;;9.40;99.90;;;;;;5063998;28;19921;-62
2023/04/22 02:13:36;;;;;;;;;;;9.50;99.90;;;;;;5061869;28;20292;-62
2023/04/22 02:16:04;;;;;;;;;;;9.50;99.90;;;;;;5061554;28;19974;-63
2023/04/22 02:18:30;;;;;;;;;;;9.60;99.90;;;;;;5062292;28;19927;-62
2023/04/22 02:20:57;;;;;;;;;;;9.60;99.90;;;;;;5073301;28;19930;-64
2023/04/22 02:23:24;;;;;;;;;;;9.60;99.90;;;;;;5066346;28;19921;-62
2023/04/22 02:25:50;;;;;;;;;;;9.60;99.90;;;;;;5060378;28;20397;-63
2023/04/22 02:28:17;;;;;;;;;;;9.70;99.90;;;;;;5063090;28;19978;-62
2023/04/22 02:30:44;;;;;;;;;;;9.70;99.90;;;;;;5064183;28;19920;-62
2023/04/22 02:33:12;;;;;;;;;;;9.70;99.90;;;;;;5059992;28;20371;-63
2023/04/22 02:35:38;;;;;;;;;;;9.80;99.90;;;;;;5063976;28;19920;-63
2023/04/22 02:38:05;;;;;;;;;;;9.80;99.90;;;;;;5061563;28;19971;-62
2023/04/22 02:40:31;;;;;;;;;;;9.90;99.90;;;;;;5061600;28;19920;-62
2023/04/22 02:42:58;;;;;;;;;;;9.80;99.90;;;;;;5063828;28;20302;-62
2023/04/22 02:45:24;;;;;;;;;;;9.80;99.90;;;;;;5062252;28;19921;-62
2023/04/22 02:47:51;;;;;;;;;;;9.80;99.90;;;;;;5061203;28;19924;-63
2023/04/22 02:50:19;;;;;;;;;;;9.80;99.90;;;;;;5072323;28;19977;-62
2023/04/22 02:52:45;;;;;;;;;;;9.80;99.90;;;;;;5062848;28;20398;-62
2023/04/22 02:55:11;;;;;;;;;;;9.80;99.90;;;;;;5063563;28;20298;-62
2023/04/22 02:57:38;;;;;;;;;;;9.90;99.90;;;;;;5061278;28;19947;-63
2023/04/22 03:00:05;;;;;;;;;;;9.80;99.90;;;;;;5062230;28;19921;-61
2023/04/22 03:02:31;;;;;;;;;;;9.80;99.90;;;;;;5061364;28;19967;-63
2023/04/22 03:04:59;;;;;;;;;;;9.80;99.90;;;;;;5061766;28;19921;-62
2023/04/22 03:07:27;;;;;;;;;;;9.80;99.90;;;;;;5063064;28;20017;-61
2023/04/22 03:09:54;;;;;;;;;;;9.90;99.90;;;;;;5063021;28;19974;-63
2023/04/22 03:12:21;;;;;;;;;;;9.90;99.90;;;;;;5063295;28;20011;-61
2023/04/22 03:14:47;;;;;;;;;;;9.90;99.90;;;;;;5061235;28;19978;-63
2023/04/22 03:17:14;;;;;;;;;;;10.00;99.90;;;;;;5061289;28;20299;-63
2023/04/22 03:19:40;;;;;;;;;;;10.00;99.90;;;;;;5068257;28;19921;-63
2023/04/22 03:22:07;;;;;;;;;;;10.00;99.90;;;;;;5067654;28;19924;-62
2023/04/22 03:24:34;;;;;;;;;;;10.00;99.90;;;;;;5063026;28;19946;-62
2023/04/22 03:27:02;;;;;;;;;;;11.30;99.90;;;;;;5062281;28;19921;-62
2023/04/22 03:29:29;;;;;;;;;;;10.00;99.90;;;;;;5064171;28;19920;-62
2023/04/22 03:31:55;;;;;;;;;;;10.00;99.90;;;;;;5060759;28;19921;-62
2023/04/22 03:34:22;;;;;;;;;;;10.10;99.90;;;;;;5067232;28;19935;-62
2023/04/22 03:36:48;;;;;;;;;;;10.10;99.90;;;;;;5060448;28;19973;-63
2023/04/22 03:39:15;;;;;;;;;;;10.10;99.90;;;;;;5062484;28;19920;-62
2023/04/22 03:41:42;;;;;;;;;;;10.20;99.90;;;;;;5062244;28;19946;-63
2023/04/22 03:44:09;;;;;;;;;;;10.20;99.90;;;;;;5063474;28;19967;-63
2023/04/22 03:46:35;;;;;;;;;;;10.20;99.90;;;;;;5066430;28;19924;-63
2023/04/22 03:49:02;;;;;;;;;;;10.20;99.90;;;;;;5070166;28;19981;-62
2023/04/22 03:51:28;;;;;;;;;;;10.20;99.90;;;;;;5076912;28;19942;-63
2023/04/22 03:53:55;;;;;;;;;;;10.20;99.90;;;;;;5066360;28;19927;-63
2023/04/22 03:56:23;;;;;;;;;;;10.20;99.90;;;;;;5066020;28;19943;-62
2023/04/22 03:58:51;;;;;;;;;;;10.20;99.90;;;;;;5068474;28;19966;-63
2023/04/22 04:01:17;;;;;;;;;;;10.30;99.90;;;;;;5064285;28;19932;-62
2023/04/22 04:03:44;;;;;;;;;;;10.30;99.90;;;;;;5066592;28;19968;-62
2023/04/22 04:06:10;;;;;;;;;;;10.30;99.90;;;;;;5062560;28;20392;-63
2023/04/22 04:08:37;;;;;;;;;;;10.30;99.90;;;;;;5063972;28;20276;-63
2023/04/22 04:11:04;;;;;;;;;;;10.30;99.90;;;;;;5065643;28;19920;-62
2023/04/22 04:13:31;;;;;;;;;;;10.40;99.90;;;;;;5066615;28;19920;-62
2023/04/22 04:15:59;;;;;;;;;;;10.30;99.90;;;;;;5066248;28;19978;-63
2023/04/22 04:18:25;;;;;;;;;;;10.40;99.90;;;;;;5066959;28;19920;-63
2023/04/22 04:20:52;;;;;;;;;;;10.40;99.90;;;;;;5079171;28;20436;-63
2023/04/22 04:23:18;;;;;;;;;;;10.40;99.90;;;;;;5068988;28;19991;-63
2023/04/22 04:25:45;;;;;;;;;;;10.40;99.90;;;;;;5066277;28;19921;-62
2023/04/22 04:28:12;;;;;;;;;;;10.40;99.90;;;;;;5064001;28;20345;-62
2023/04/22 04:30:40;;;;;;;;;;;;;;;;;;5063994;28;20394;-62
2023/04/22 04:33:07;;;;;;;;;;;;;;;;;;5065791;28;20379;-63
2023/04/22 04:35:34;;;;;;;;;;;;;;;;;;5064961;28;19924;-63
2023/04/22 04:38:01;;;;;;;;;;;;;;;;;;5063116;28;19920;-62
2023/04/22 04:40:29;;;;;;;;;;;;;;;;;;5065160;28;19950;-62
2023/04/22 04:42:56;;;;;;;;;;;;;;;;;;5065786;28;19927;-62
2023/04/22 04:45:25;;;;;;;;;;;10.30;99.90;;;;;;5054490;28;19921;-62
2023/04/22 04:47:53;;;;;;;;;;;;;;;;;;5054282;28;20337;-63
2023/04/22 04:50:20;;;;;;;;;;;;;;;;;;5073187;28;19920;-62
2023/04/22 04:52:47;;;;;;;;;;;;;;;;;;5066505;28;20144;-63
2023/04/22 04:55:14;;;;;;;;;;;;;;;;;;5065898;28;19924;-62
2023/04/22 04:57:41;;;;;;;;;;;;;;;;;;5061535;28;19927;-62
2023/04/22 05:00:09;;;;;;;;;;;;;;;;;;5064872;28;19974;-62
2023/04/22 05:02:36;;;;;;;;;;;;;;;;;;5062871;28;19963;-63
2023/04/22 05:05:02;;;;;;;;;;;;;;;;;;5063976;28;19978;-62
2023/04/22 05:07:29;;;;;;;;;;;;;;;;;;5065108;28;19920;-60
2023/04/22 05:09:57;;;;;;;;;;;10.60;99.90;;;;;;5065523;28;19920;-63
2023/04/22 05:12:24;;;;;;;;;;;10.90;99.90;;;;;;5065278;28;19998;-63
2023/04/22 05:14:50;;;;;;;;;;;11.00;99.90;;;;;;5054007;28;20369;-63
2023/04/22 05:17:16;;;;;;;;;;;11.00;99.90;;;;;;5053901;28;19925;-63
2023/04/22 05:19:43;;;;;;;;;;;11.00;99.90;;;;;;5065331;28;19920;-63
2023/04/22 05:22:10;;;;;;;;;;;11.00;99.90;;;;;;5066849;28;19928;-63
2023/04/22 05:24:36;;;;;;;;;;;11.00;99.90;;;;;;5063750;28;20332;-63
2023/04/22 05:27:04;;;;;;;;;;;11.00;99.90;;;;;;5065923;28;19920;-63
2023/04/22 05:29:30;;;;;;;;;;;11.00;99.90;;;;;;5064694;28;20295;-63
2023/04/22 05:31:57;;;;;;;;;;;11.00;99.90;;;;;;5063483;28;19974;-64
2023/04/22 05:34:23;;;;;;;;;;;11.00;99.90;;;;;;5064774;28;19924;-64
2023/04/22 05:36:50;;;;;;;;;;;11.00;99.90;;;;;;5064788;28;20282;-60
2023/04/22 05:39:16;;;;;;;;;;;11.10;99.90;;;;;;5062450;28;19920;-60
2023/04/22 05:41:43;;;;;;;;;;;11.10;99.90;;;;;;5063552;28;19920;-64
2023/04/22 05:44:11;;;;;;;;;;;11.20;99.90;;;;;;5061123;28;19921;-63
2023/04/22 05:46:37;;;;;;;;;;;11.20;99.90;;;;;;5063957;28;19920;-63
2023/04/22 05:49:04;;;;;;;;;;;11.20;99.90;;;;;;5069334;28;19920;-63
2023/04/22 05:51:31;;;;;;;;;;;11.30;99.90;;;;;;5070672;28;19920;-62
2023/04/22 05:53:58;;;;;;;;;;;11.40;99.90;;;;;;5063719;28;19925;-63
2023/04/22 05:56:24;;;;;;;;;;;11.30;99.90;;;;;;5062835;28;20383;-59
2023/04/22 05:58:51;;;;;;;;;;;11.30;99.90;;;;;;5064196;28;19920;-62
2023/04/22 06:01:19;;;;;;;;;;;11.40;99.90;;;;;;5063970;28;19950;-64
2023/04/22 06:03:45;;;;;;;;;;;11.50;99.90;;;;;;5062424;28;20331;-64
2023/04/22 06:06:12;;;;;;;;;;;11.60;99.90;;;;;;5062111;28;19920;-63
2023/04/22 06:08:38;;;;;;;;;;;11.70;99.90;;;;;;5064052;28;19924;-63
2023/04/22 06:11:05;;;;;;;;;;;11.70;99.90;;;;;;5062155;28;19966;-63
2023/04/22 06:13:31;;;;;;;;;;;11.80;99.90;;;;;;5062409;28;19921;-59
2023/04/22 06:15:58;;;;;;;;;;;11.90;99.90;;;;;;5064200;28;19977;-63
2023/04/22 06:18:25;;;;;;;;;;;11.90;99.90;;;;;;5062677;28;20421;-62
2023/04/22 06:20:52;;;;;;;;;;;12.00;99.90;;;;;;5072377;28;19969;-62
2023/04/22 06:23:18;;;;;;;;;;;12.20;92.00;;;;;;5061802;28;19996;-61
2023/04/22 06:25:46;;;;;;;;;;;12.30;74.30;;;;;;5063053;28;19920;-62
2023/04/22 06:28:12;;;;;;;;;;;12.40;83.40;;;;;;5061368;28;19920;-62
2023/04/22 06:30:39;;;;;;;;;;;12.50;61.60;;;;;;5062608;28;20268;-62
2023/04/22 06:33:05;;;;;;;;;;;12.50;52.50;;;;;;5063742;28;19924;-62
2023/04/22 06:35:33;;;;;;;;;;;12.60;54.70;;;;;;5061759;28;19921;-61
2023/04/22 06:37:59;;;;;;;;;;;12.70;57.40;;;;;;5064987;28;19974;-61
2023/04/22 06:40:26;;;;;;;;;;;12.70;37.30;;;;;;5060438;28;19983;-61
2023/04/22 06:42:52;;;;;;;;;;;12.80;47.70;;;;;;5062649;28;19936;-62
2023/04/22 06:45:19;;;;;;;;;;;12.90;18.00;;;;;;5061442;28;19920;-62
2023/04/22 06:47:46;;;;;;;;;;;12.90;20.90;;;;;;5062927;28;19920;-61
2023/04/22 06:50:12;;;;;;;;;;;12.90;37.60;;;;;;5074932;28;19921;-62
2023/04/22 06:52:40;;;;;;;;;;;12.90;29.90;;;;;;5071064;28;19921;-62
2023/04/22 06:55:07;;;;;;;;;;;13.00;25.80;;;;;;5062886;28;19920;-62
2023/04/22 06:57:33;;;;;;;;;;;13.00;27.90;;;;;;5060775;28;19966;-62
2023/04/22 06:59:59;;;;;;;;;;;13.10;1.00;;;;;;5061664;28;19921;-62
2023/04/22 07:02:26;;;;;;;2.90;2.60;;;13.20;3.10;;;;;;5064541;28;20419;-62
2023/04/22 07:04:53;;;;;;;2.95;2.60;;;13.20;1.00;;;;;;5059308;28;21107;-62
2023/04/22 07:07:19;;;;;;;2.70;2.38;;;13.20;1.00;;;;;;5060884;28;20423;-63
2023/04/22 07:09:47;;;;;;;3.88;2.60;;;13.10;1.00;;;;;;5062546;28;20408;-62
2023/04/22 07:12:14;;;;;;;3.92;2.45;;;13.20;1.00;;;;;;5051001;28;20409;-62
2023/04/22 07:14:43;;;;;;;3.00;2.00;;;13.30;1.00;;;;;;5050726;28;20466;-60
2023/04/22 07:17:10;;;;;;;4.00;2.60;;;13.40;1.00;;;;;;5051669;28;20780;-61
2023/04/22 07:19:37;;;;;;;3.38;2.20;;;13.70;1.00;;;;;;5066933;28;20421;-63
2023/04/22 07:22:05;;;;;;;3.55;2.28;;;13.80;1.00;;;;;;5069670;28;20462;-64
2023/04/22 07:24:32;;;;;;;4.38;2.10;;;14.00;1.00;;;;;;5065244;28;20762;-63
2023/04/22 07:27:00;;;;;;;3.88;2.60;;;14.30;1.00;;;;;;5065957;28;20788;-63
2023/04/22 07:29:26;;;;;;;3.20;2.17;;;14.30;99.90;;;;;;5055303;28;20505;-63
2023/04/22 07:31:53;;;;;;;3.67;2.17;;;14.50;99.90;;;;;;5056743;28;20466;-63
2023/04/22 07:34:20;;;;;;;3.80;2.15;;;14.70;99.90;;;;;;5054192;28;20439;-63
2023/04/22 07:36:46;;;;;;;4.13;2.28;;;14.90;1.00;;;;;;5053790;28;20412;-63
2023/04/22 07:39:13;;;;;;;3.28;2.10;;;15.00;1.00;;;;;;5054287;28;20416;-63
2023/04/22 07:41:40;;;;;;;5.82;2.00;;;15.10;27.50;;;;;;5061518;28;20403;-64
2023/04/22 07:44:09;;;;;;;2.75;1.92;;;15.30;1.00;;;;;;5064720;28;20470;-64
2023/04/22 07:46:36;;;;;;;3.33;2.03;;;15.40;1.00;;;;;;5062756;28;20469;-63
2023/04/22 07:49:02;;;;;;;2.67;1.83;;;15.50;99.90;;;;;;5066925;28;20412;-64
2023/04/22 07:51:29;;;;;;;;;;;15.60;1.00;;;;;;5071636;28;20835;-63
2023/04/22 07:53:55;;;;;;;;;;;15.70;20.00;;;;;;5064709;28;19920;-62
2023/04/22 07:56:22;;;;;;;;;;;15.70;99.90;;;;;;5064173;28;19921;-63
2023/04/22 07:58:48;;;;;;;;;;;15.70;99.90;;;;;;5067427;28;19924;-64
2023/04/22 08:01:16;;;;;;;;;;;15.70;99.90;;;;;;5062982;28;19920;-64
2023/04/22 08:03:42;;;;;;;;;;;15.80;1.00;;;;;;5066645;28;20310;-63
2023/04/22 08:06:09;;;;;;;;;;;15.90;99.90;;;;;;5064451;28;19921;-63
2023/04/22 08:08:35;;;;;;;;;;;16.10;99.90;;;;;;5065004;28;20349;-63
2023/04/22 08:11:02;;;;;;;;;;;16.20;1.00;;;;;;5066648;28;19920;-63
2023/04/22 08:13:28;;;;;;;;;;;16.40;1.00;;;;;;5064857;28;20015;-63
2023/04/22 08:15:55;;;;;;;;;;;16.50;1.00;;;;;;5063643;28;19921;-63
2023/04/22 08:18:23;;;;;;;;;;;16.70;99.90;;;;;;5064082;28;19920;-63
2023/04/22 08:20:49;;;;;;;;;;;16.90;99.90;;;;;;5070307;28;19921;-64
2023/04/22 08:23:16;;;;;;;;;;;17.00;99.90;;;;;;5073477;28;19973;-63
2023/04/22 08:25:43;;;;;;;3.95;2.03;;;;;;;;;;5063620;28;20463;-64
2023/04/22 08:28:10;;;;;;;2.05;1.67;;;;;;;;;;5060014;28;20429;-63
2023/04/22 08:30:37;;;;;;;4.07;2.20;;;;;;;;;;5062602;28;20409;-64
2023/04/22 08:33:04;;;;;;;2.92;2.00;;;;;;;;;;5062860;28;20413;-63
2023/04/22 08:35:34;;;;;;;3.95;1.98;;;;;;;;;;5062146;28;20788;-65
2023/04/22 08:38:01;;;;;;;2.77;1.80;;;;;;;;;;5063682;28;20413;-64
2023/04/22 08:40:29;;;;;;;3.55;1.80;;;;;;;;;;5063581;28;20413;-63
2023/04/22 08:42:56;;;;;;;5.45;1.80;;;;;;;;;;5063671;28;20418;-64
2023/04/22 08:45:23;;;;;;;3.10;1.90;;;17.20;99.90;;;;;;5064469;28;20411;-63
2023/04/22 08:47:50;;;;;;;2.90;1.77;;;17.90;1.00;;;;;;5060281;28;20425;-63
2023/04/22 08:50:16;;;;;;;3.05;1.80;;;17.90;1.00;;;;;;5070202;28;20413;-63
2023/04/22 08:52:44;;;;;;;3.75;1.73;;;18.00;1.00;;;;;;5070158;28;20782;-63
2023/04/22 08:55:11;;;;;;;2.58;1.85;;;18.00;99.90;;;;;;5062565;28;20465;-63
2023/04/22 08:57:39;;;;;;;2.50;1.77;;;17.90;99.90;;;;;;5064056;28;20408;-64
2023/04/22 09:00:07;;;;;;;3.15;1.85;;;17.90;1.00;;;;;;5061737;28;20436;-63
2023/04/22 09:02:36;;;;;;;3.38;1.77;;;17.90;99.90;;;;;;5061979;28;20489;-63
2023/04/22 09:05:06;;;;;;;2.45;1.90;;;18.10;1.00;;;;;;5061814;28;20441;-63
2023/04/22 09:07:34;;;;;;;2.90;1.70;;;18.30;1.00;;;;;;5061336;28;20498;-64
2023/04/22 09:10:02;;;;;;;2.92;1.83;;;18.30;99.90;;;;;;5061078;28;20413;-63
2023/04/22 09:12:29;;;;;;;3.17;1.90;;;18.30;99.90;;;;;;5065041;28;20469;-63
2023/04/22 09:14:56;;;;;;;4.13;2.30;;;18.30;99.90;;;;;;5061059;28;20919;-64
2023/04/22 09:17:30;;;;;;;3.70;1.98;;;18.30;1.00;;;;;;5062337;28;20481;-63
2023/04/22 09:19:58;;;;;;;3.30;2.07;;;18.30;99.90;;;;;;5071387;28;20960;-63
2023/04/22 09:22:25;;;;;;;3.30;2.10;;;18.40;1.00;;;;;;5061950;28;20440;-64
2023/04/22 09:24:52;;;;;;;3.38;1.90;;;18.50;99.90;;;;;;5058835;28;20930;-63
2023/04/22 09:27:24;;;;;;;3.72;1.92;;;18.50;99.90;;;;;;5061991;28;20431;-64
2023/04/22 09:29:52;;;;;;;3.60;1.97;;;18.60;99.90;;;;;;5060110;28;20421;-64
2023/04/22 09:32:19;;;;;;;4.47;1.98;;;18.80;99.90;;;;;;5065107;28;20411;-64
2023/04/22 09:34:49;;;;;;;2.42;1.90;;;18.80;99.90;;;;;;5064320;28;20408;-64
2023/04/22 09:37:20;;;;;;;4.05;2.30;;;18.80;99.90;;;;;;5051695;28;20475;-63
2023/04/22 09:39:48;;;;;;;3.70;1.92;;;18.80;99.90;;;;;;5051398;28;20425;-64
2023/04/22 09:42:14;;;;;;;2.65;1.80;;;18.80;99.90;;;;;;5051425;28;20467;-63
2023/04/22 09:44:44;;;;;;;5.15;1.80;;;18.80;99.90;;;;;;5051933;28;20413;-64
2023/04/22 09:47:11;;;;;;;4.30;2.20;;;18.90;99.90;;;;;;5062800;28;20489;-65
2023/04/22 09:49:38;;;;;;;2.83;1.75;;;19.10;99.90;;;;;;5067757;28;20955;-65
2023/04/22 09:52:05;;;;;;;3.22;1.80;;;19.20;99.90;;;;;;5062656;28;20405;-70
2023/04/22 09:54:32;;;;;;;4.20;1.88;;;19.40;99.90;;;;;;5068151;28;20406;-63
2023/04/22 09:57:00;;;;;;;2.73;1.77;;;19.50;99.90;;;;;;5060711;28;20413;-61
2023/04/22 09:59:27;;;;;;;4.07;1.75;;;19.50;99.90;;;;;;5064254;28;20419;-60
2023/04/22 10:01:58;;;;;;;2.38;1.75;;;19.40;99.90;;;;;;5064209;28;20417;-61
2023/04/22 10:04:25;;;;;;;2.97;1.80;;;19.40;99.90;;;;;;5061111;28;20430;-62
2023/04/22 10:06:53;;;;;;;3.17;1.70;;;19.50;99.90;;;;;;5062629;28;20487;-62
2023/04/22 10:09:21;;;;;;;2.58;1.98;;;19.60;99.90;;;;;;5065415;28;20847;-61
2023/04/22 10:11:49;;;;;;;2.80;1.80;;;;;;;;;;5060907;28;20408;-62
2023/04/22 10:14:16;;;;;;;4.07;1.90;;;;;;;;;;5061589;28;20416;-62
2023/04/22 10:16:44;;;;;;;2.58;1.65;;;;;;;;;;5059901;28;20420;-61
2023/04/22 10:19:13;;;;;;;3.20;1.90;;;;;;;;;;5064328;28;20423;-60
2023/04/22 10:21:41;;;;;;;3.22;1.90;;;;;;;;;;5059920;28;20502;-61
2023/04/22 10:24:08;;;;;;;2.40;1.90;;;;;;;;;;5061372;28;20507;-62
2023/04/22 10:26:39;;;;;;;3.70;1.77;;;;;;;;;;5058146;28;20945;-63
2023/04/22 10:29:06;;;;;;;2.80;1.80;;;;;;;;;;5059722;28;20421;-62
2023/04/22 10:31:33;;;;;;;2.42;1.80;;;;;;;;;;5061665;28;20415;-62
2023/04/22 10:34:10;;;;;;;2.55;1.63;;;;;;;;;;5058820;28;20421;-61
2023/04/22 10:36:52;;;;;;;2.80;1.63;;;;;;;;;;5062146;28;20474;-61
2023/04/22 10:39:20;;;;;;;4.15;1.83;;;;;;;;;;5063943;28;20836;-62
2023/04/22 10:41:51;;;;;;;3.38;1.83;;;;;;;;;;5069328;28;20973;-62
2023/04/22 10:44:20;;;;;;;4.07;1.83;;;;;;;;;;5068649;28;20418;-62
2023/04/22 10:46:56;;;;;;;3.77;1.80;;;;;;;;;;5072410;28;20480;-61
2023/04/22 10:49:24;;;;;;;3.83;1.63;;;;;;;;;;5063850;28;20479;-59
2023/04/22 10:51:53;;;;;;;4.00;1.90;;;;;;;;;;5071853;28;20901;-61
2023/04/22 10:54:38;;;;;;;3.23;1.70;;;;;;;;;;5059197;28;20447;-59
2023/04/22 10:57:06;;;;;;;3.80;1.90;;;;;;;;;;5060037;28;20470;-62
2023/04/22 10:59:34;;;;;;;3.00;1.80;;;;;;;;;;5058911;28;20823;-63
2023/04/22 11:02:02;;;;;;;1.90;1.50;;;;;;;;;;5060446;28;20411;-61
2023/04/22 11:04:29;;;;;;;3.17;1.70;;;;;;;;;;5061311;28;20462;-63
2023/04/22 11:07:30;;;;;;;3.07;1.70;;;;;;;;;;5057678;28;20962;-62
2023/04/22 11:09:59;;;;;;;2.40;1.63;;;;;;;;;;5061959;28;20823;-64
2023/04/22 11:12:42;;;;;;;3.80;1.90;;;;;;;;;;5059172;28;20413;-60
2023/04/22 11:15:10;;;;;;;4.90;1.95;;;;;;;;;;5070102;28;20480;-62
2023/04/22 11:17:37;;;;;;;3.22;1.90;;;;;;;;;;5066256;28;20417;-62
2023/04/22 11:20:05;;;;;;;4.30;1.90;;;;;;;;;;5060976;28;20420;-59
2023/04/22 11:22:36;;;;;;;3.83;1.70;;;;;;;;;;5072182;28;20466;-62
2023/04/22 11:25:04;;;;;;;2.78;1.73;;;;;;;;;;5061744;28;20467;-62
2023/04/22 11:27:32;;;;;;;2.63;2.10;;;;;;;;;;5050123;28;20549;-59
2023/04/22 11:30:02;;;;;;;5.13;2.05;;;;;;;;;;5053610;28;20411;-64
2023/04/22 11:32:29;;;;;;;2.57;1.87;;;;;;;;;;5059864;28;20868;-62
2023/04/22 11:34:57;;;;;;;2.55;1.80;;;;;;;;;;5058287;28;20421;-61
2023/04/22 11:37:24;;;;;;;2.58;1.70;;;;;;;;;;5059674;28;20472;-59
2023/04/22 11:39:53;;;;;;;2.63;1.90;;;;;;;;;;5060655;28;20454;-61
2023/04/22 11:42:21;;;;;;;4.97;2.10;;;;;;;;;;5058867;28;20412;-61
2023/04/22 11:44:48;;;;;;;4.45;1.92;;;;;;;;;;5058714;28;20413;-58
2023/04/22 11:47:15;;;;;;;3.03;1.90;;;;;;;;;;5049355;28;20455;-59
2023/04/22 11:49:42;;;;;;;3.65;2.10;;;;;;;;;;5063697;28;20459;-61
2023/04/22 11:52:09;;;;;;;3.67;2.05;;;;;;;;;;5066090;28;20440;-60
2023/04/22 11:54:37;;;;;;;2.92;2.00;;;;;;;;;;5061614;28;20427;-61
2023/04/22 11:57:07;;;;;;;4.70;1.80;;;;;;;;;;5054828;28;20425;-62
2023/04/22 11:59:34;;;;;;;3.40;2.00;;;;;;;;;;5059742;28;20407;-61
2023/04/22 12:02:01;;;;;;;3.80;2.10;;;;;;;;;;5060228;28;20917;-59
2023/04/22 12:04:28;;;;;;;2.95;2.10;;;;;;;;;;5060197;28;20413;-58
2023/04/22 12:06:55;;;;;;;3.50;2.10;;;;;;;;;;5062880;28;20468;-61
2023/04/22 12:09:25;;;;;;;3.78;2.30;;;;;;;;;;5064546;28;20431;-60
2023/04/22 12:11:52;;;;;;;3.85;2.20;;;;;;;;;;5062766;28;20488;-60
2023/04/22 12:14:21;;;;;;;4.35;2.25;;;;;;;;;;5061264;28;20425;-61
2023/04/22 12:16:48;;;;;;;3.05;2.05;;;;;;;;;;5062407;28;20409;-61
2023/04/22 12:19:14;;;;;;;3.25;2.25;;;;;;;;;;5069754;28;20440;-61
2023/04/22 12:21:42;;;;;;;3.42;2.10;;;;;;;;;;5069376;28;20763;-62
2023/04/22 12:24:10;;;;;;;4.47;2.50;;;;;;;;;;5069152;28;20421;-63
2023/04/22 12:26:37;;;;;;;4.13;2.10;;;;;;;;;;5068943;28;20455;-62
2023/04/22 12:29:05;;;;;;;4.38;2.45;;;;;;;;;;5067688;28;20433;-62
2023/04/22 12:31:33;;;;;;;3.07;2.27;;;;;;;;;;5063789;28;20412;-62
2023/04/22 12:34:00;;;;;;;3.15;2.30;;;;;;;;;;5066655;28;20872;-62
2023/04/22 12:36:28;;;;;;;5.88;2.17;;;;;;;;;;5063445;28;20879;-62
2023/04/22 12:38:55;;;;;;;4.75;2.20;;;19.60;99.90;;;;;;5052378;28;20930;-61
2023/04/22 12:41:22;;;;;;;3.60;2.22;;;;;;;;;;5052025;28;20425;-62
2023/04/22 12:43:51;;;;;;;4.60;2.30;;;;;;;;;;5060838;28;21274;-62
2023/04/22 12:46:18;;;;;;;3.92;2.30;;;;;;;;;;5065246;28;20925;-61
2023/04/22 12:48:46;;;;;;;5.97;2.47;;;;;;;;;;5063741;28;20480;-61
2023/04/22 12:51:13;;;;;;;3.35;2.20;;;;;;;;;;5064355;28;20474;-61
2023/04/22 12:53:40;;;;;;;2.67;2.20;;;;;;;;;;5065270;28;20416;-60
2023/04/22 12:56:07;;;;;;;3.15;2.10;;;;;;;;;;5061528;28;20412;-61
2023/04/22 12:58:34;;;;;;;5.28;2.50;;;;;;;;;;5063374;28;20413;-59
2023/04/22 13:01:01;;;;;;;6.28;2.58;;;;;;;;;;5060476;28;20422;-61
2023/04/22 13:03:28;;;;;;;4.87;2.60;;;;;;;;;;5063528;28;20443;-61
2023/04/22 13:05:57;;;;;;;3.92;2.25;;;;;;;;;;5065916;28;20413;-61
2023/04/22 13:08:24;;;;;;;3.95;2.20;;;;;;;;;;5067197;28;20494;-61
2023/04/22 13:10:51;;;;;;;3.60;2.53;;;;;;;;;;5061728;28;20896;-61
2023/04/22 13:13:18;;;;;;;3.28;2.25;;;;;;;;;;5063444;28;20408;-61
2023/04/22 13:15:45;;;;;;;3.70;2.42;;;;;;;;;;5061923;28;20413;-60
2023/04/22 13:18:12;;;;;;;4.25;2.58;;;;;;;;;;5060502;28;20487;-61
2023/04/22 13:20:40;;;;;;;3.28;2.17;;;;;;;;;;5067630;28;20941;-59
2023/04/22 13:23:09;;;;;;;5.20;2.38;;;;;;;;;;5066158;28;20975;-61
2023/04/22 13:25:36;;;;;;;4.07;2.47;;;;;;;;;;5052262;28;20422;-61
2023/04/22 13:28:03;;;;;;;4.63;2.28;;;;;;;;;;5052054;28;20417;-62
2023/04/22 13:30:30;;;;;;;4.05;2.55;;;;;;;;;;5052502;28;20421;-60
2023/04/22 13:32:57;;;;;;;4.13;2.50;;;;;;;;;;5055846;28;20467;-61
2023/04/22 13:35:24;;;;;;;2.92;2.20;;;;;;;;;;5064781;28;20415;-58
2023/04/22 13:37:51;;;;;;;7.00;2.75;;;;;;;;;;5064197;28;20407;-60
2023/04/22 13:40:20;;;;;;;3.83;2.50;;;;;;;;;;5063502;28;20415;-58
2023/04/22 13:42:47;;;;;;;3.97;2.30;;;;;;;;;;5060656;28;20424;-61
2023/04/22 13:45:14;;;;;;;6.43;2.70;;;;;;;;;;5061774;28;20442;-61
2023/04/22 13:47:41;;;;;;;4.65;2.80;;;;;;;;;;5062528;28;20894;-62
2023/04/22 13:50:09;;;;;;;5.35;2.33;;;;;;;;;;5065882;28;20429;-62
2023/04/22 13:52:36;;;;;;;3.95;2.50;;;;;;;;;;5069867;28;20898;-62
2023/04/22 13:55:03;;;;;;;4.88;2.40;;;;;;;;;;5051754;28;20470;-61
2023/04/22 13:57:31;;;;;;;4.18;2.40;;;;;;;;;;5051364;28;20413;-59
2023/04/22 13:59:59;;;;;;;4.90;2.42;;;;;;;;;;5051336;28;20478;-61
2023/04/22 14:02:25;;;;;;;3.75;2.40;;;;;;;;;;5051595;28;20414;-60
2023/04/22 14:04:52;;;;;;;3.97;2.00;;;;;;;;;;5051908;28;20413;-60
2023/04/22 14:07:20;;;;;;;3.43;2.20;;;;;;;;;;5062341;28;20829;-61
2023/04/22 14:09:47;;;;;;;6.03;2.40;;;;;;;;;;5061952;28;20430;-57
2023/04/22 14:12:14;;;;;;;3.90;2.37;;;;;;;;;;5059848;28;20413;-61
2023/04/22 14:14:42;;;;;;;3.92;2.33;;;;;;;;;;5061147;28;20408;-61
2023/04/22 14:17:09;;;;;;;3.93;2.80;;;;;;;;;;5062252;28;20454;-61
2023/04/22 14:19:38;;;;;;;5.28;3.03;;;;;;;;;;5067773;28;20410;-61